DURO2: Washita River Durwood, OK

Data processed at Wed Apr 18 2018 23:35


All information presented herein is the property of the government of the United States of America and may be revised or deleted at any time without prior notice.
Dissemination of this information without the expressed written consent of the Public Affairs Office, Tulsa District U.S. Army Corps of Engineers is strictly prohibited.
These data are gathered electronically and, as presented, have not undergone any form of quality control. These data are not guaranteed to be valid or correct.
Go to home page.
Go to station list.

Upstream stations:

Downstream station:
Previous Day
Next Day
Current Day
    
SHEF ID:       DURO2     Washita River near Dickson, OK
STATION TYPE:  

               PRECIP PRECIP(A)     STAGE  RIV-FLOW  BAT-LOAD
                   in        in        ft       cfs      volt
              Ccp-Rev   Ccp-Rev   Ccp-Rev   Ccp-Rev   Ccp-Rev
(US/Central)
04/16 00:00      0.00      ----      7.01       677     12.41
04/16 01:00      0.00      ----      7.00       671     12.41
04/16 02:00      0.00      ----      6.98       659     12.33
04/16 03:00      0.00      ----      6.98       659     12.33
04/16 04:00      0.00      ----      6.99       665     12.25
04/16 05:00      0.00      ----      6.98       659     12.25
04/16 06:00      0.00      ----      6.99       665     12.17
04/16 07:00      0.00      ----      6.97       652     12.17
04/16 08:00      0.00      ----      7.00       671     13.05
04/16 09:00      0.00      ----      6.97       652     13.05
04/16 10:00      0.00      ----      7.01       677     12.89
04/16 11:00      0.00      ----      6.97       652     12.73
04/16 12:00      0.00      ----      6.98       659     12.73
04/16 13:00      0.00      ----      6.95       640     12.65
04/16 14:00      0.00      ----      6.96       646     12.73
04/16 15:00      0.00      ----      6.97       652     12.73
04/16 16:00      0.00      ----      6.97       652     12.73
04/16 17:00      0.00      ----      6.94       634     12.65
04/16 18:00      0.00      ----      6.90       609     12.65
04/16 19:00      0.00      ----      6.94       634     12.65
04/16 20:00      0.00      ----      6.92       621     12.57
04/16 21:00      0.00      ----      6.92       621     12.57
04/16 22:00      0.00      ----      6.91       615     12.49
04/16 23:00      0.00      ----      6.92       621     12.49